sensor_id;sensor_type;location;lat;lon;timestamp;temperature;humidity
20670;DHT22;10494;50.868;4.180;2023-07-31T00:01:44;17.50;99.90
20670;DHT22;10494;50.868;4.180;2023-07-31T00:04:09;17.50;99.90
20670;DHT22;10494;50.868;4.180;2023-07-31T00:06:35;17.60;99.90
20670;DHT22;10494;50.868;4.180;2023-07-31T00:09:00;17.60;99.90
20670;DHT22;10494;50.868;4.180;2023-07-31T00:11:26;17.60;99.90
20670;DHT22;10494;50.868;4.180;2023-07-31T00:13:53;17.70;99.90
20670;DHT22;10494;50.868;4.180;2023-07-31T00:16:19;17.60;99.90
20670;DHT22;10494;50.868;4.180;2023-07-31T00:18:44;17.60;99.90
20670;DHT22;10494;50.868;4.180;2023-07-31T00:21:10;17.60;99.90
20670;DHT22;10494;50.868;4.180;2023-07-31T00:23:36;17.60;99.90
20670;DHT22;10494;50.868;4.180;2023-07-31T00:26:01;17.60;99.90
20670;DHT22;10494;50.868;4.180;2023-07-31T00:28:27;17.60;99.90
20670;DHT22;10494;50.868;4.180;2023-07-31T00:30:54;17.70;99.90
20670;DHT22;10494;50.868;4.180;2023-07-31T00:33:19;17.60;99.90
20670;DHT22;10494;50.868;4.180;2023-07-31T00:35:45;17.70;99.90
20670;DHT22;10494;50.868;4.180;2023-07-31T00:38:10;17.70;99.90
20670;DHT22;10494;50.868;4.180;2023-07-31T00:40:37;17.60;99.90
20670;DHT22;10494;50.868;4.180;2023-07-31T00:43:03;17.60;99.90
20670;DHT22;10494;50.868;4.180;2023-07-31T00:45:29;17.70;99.90
20670;DHT22;10494;50.868;4.180;2023-07-31T00:47:55;17.70;99.90
20670;DHT22;10494;50.868;4.180;2023-07-31T00:50:24;17.60;99.90
20670;DHT22;10494;50.868;4.180;2023-07-31T00:52:49;17.60;99.90
20670;DHT22;10494;50.868;4.180;2023-07-31T00:55:15;17.60;99.90
20670;DHT22;10494;50.868;4.180;2023-07-31T00:57:41;17.70;99.90
20670;DHT22;10494;50.868;4.180;2023-07-31T01:00:08;17.70;99.90
20670;DHT22;10494;50.868;4.180;2023-07-31T01:02:34;17.60;99.90
20670;DHT22;10494;50.868;4.180;2023-07-31T01:05:01;17.70;99.90
20670;DHT22;10494;50.868;4.180;2023-07-31T01:07:51;17.60;99.90
20670;DHT22;10494;50.868;4.180;2023-07-31T01:10:26;17.60;99.90
20670;DHT22;10494;50.868;4.180;2023-07-31T01:12:56;17.70;99.90
20670;DHT22;10494;50.868;4.180;2023-07-31T01:15:23;17.70;99.90
20670;DHT22;10494;50.868;4.180;2023-07-31T01:17:48;17.60;99.90
20670;DHT22;10494;50.868;4.180;2023-07-31T01:20:18;17.70;99.90
20670;DHT22;10494;50.868;4.180;2023-07-31T01:22:54;17.60;99.90
20670;DHT22;10494;50.868;4.180;2023-07-31T01:28:14;17.60;99.90
20670;DHT22;10494;50.868;4.180;2023-07-31T01:30:47;17.60;99.90
20670;DHT22;10494;50.868;4.180;2023-07-31T01:33:15;17.50;99.90
20670;DHT22;10494;50.868;4.180;2023-07-31T01:35:45;17.60;99.90
20670;DHT22;10494;50.868;4.180;2023-07-31T01:38:12;17.70;99.90
20670;DHT22;10494;50.868;4.180;2023-07-31T01:40:40;17.70;99.90
20670;DHT22;10494;50.868;4.180;2023-07-31T01:43:06;17.70;99.90
20670;DHT22;10494;50.868;4.180;2023-07-31T01:45:32;17.70;99.90
20670;DHT22;10494;50.868;4.180;2023-07-31T01:47:57;17.70;99.90
20670;DHT22;10494;50.868;4.180;2023-07-31T01:50:23;17.70;99.90
20670;DHT22;10494;50.868;4.180;2023-07-31T01:52:48;17.70;99.90
20670;DHT22;10494;50.868;4.180;2023-07-31T01:55:14;17.70;99.90
20670;DHT22;10494;50.868;4.180;2023-07-31T01:57:40;17.70;99.90
20670;DHT22;10494;50.868;4.180;2023-07-31T02:00:06;17.80;99.90
20670;DHT22;10494;50.868;4.180;2023-07-31T02:02:32;17.70;99.90
20670;DHT22;10494;50.868;4.180;2023-07-31T02:04:57;17.70;99.90
20670;DHT22;10494;50.868;4.180;2023-07-31T02:07:23;17.70;99.90
20670;DHT22;10494;50.868;4.180;2023-07-31T02:09:48;17.80;99.90
20670;DHT22;10494;50.868;4.180;2023-07-31T02:12:14;17.90;99.90
20670;DHT22;10494;50.868;4.180;2023-07-31T02:14:40;17.90;99.90
20670;DHT22;10494;50.868;4.180;2023-07-31T02:17:06;17.80;99.90
20670;DHT22;10494;50.868;4.180;2023-07-31T02:19:32;17.80;99.90
20670;DHT22;10494;50.868;4.180;2023-07-31T02:21:57;17.80;99.90
20670;DHT22;10494;50.868;4.180;2023-07-31T02:24:24;17.80;99.90
20670;DHT22;10494;50.868;4.180;2023-07-31T02:26:49;17.90;99.90
20670;DHT22;10494;50.868;4.180;2023-07-31T02:29:15;17.90;99.90
20670;DHT22;10494;50.868;4.180;2023-07-31T02:31:40;17.90;99.90
20670;DHT22;10494;50.868;4.180;2023-07-31T02:34:06;17.90;99.90
20670;DHT22;10494;50.868;4.180;2023-07-31T02:36:32;17.80;99.90
20670;DHT22;10494;50.868;4.180;2023-07-31T02:38:57;17.90;99.90
20670;DHT22;10494;50.868;4.180;2023-07-31T02:41:23;17.90;99.90
20670;DHT22;10494;50.868;4.180;2023-07-31T02:43:48;17.90;99.90
20670;DHT22;10494;50.868;4.180;2023-07-31T02:46:14;17.90;99.90
20670;DHT22;10494;50.868;4.180;2023-07-31T02:48:39;18.00;99.90
20670;DHT22;10494;50.868;4.180;2023-07-31T02:51:05;17.90;99.90
20670;DHT22;10494;50.868;4.180;2023-07-31T02:53:31;17.90;99.90
20670;DHT22;10494;50.868;4.180;2023-07-31T02:55:56;17.90;99.90
20670;DHT22;10494;50.868;4.180;2023-07-31T02:58:22;17.90;99.90
20670;DHT22;10494;50.868;4.180;2023-07-31T03:00:47;17.70;99.90
20670;DHT22;10494;50.868;4.180;2023-07-31T03:03:13;17.60;99.90
20670;DHT22;10494;50.868;4.180;2023-07-31T03:05:41;17.50;99.90
20670;DHT22;10494;50.868;4.180;2023-07-31T03:08:06;17.50;99.90
20670;DHT22;10494;50.868;4.180;2023-07-31T03:10:32;17.50;99.90
20670;DHT22;10494;50.868;4.180;2023-07-31T03:12:58;17.50;99.90
20670;DHT22;10494;50.868;4.180;2023-07-31T03:15:23;17.50;99.90
20670;DHT22;10494;50.868;4.180;2023-07-31T03:17:49;17.50;99.90
20670;DHT22;10494;50.868;4.180;2023-07-31T03:20:14;17.50;99.90
20670;DHT22;10494;50.868;4.180;2023-07-31T03:22:40;17.50;99.90
20670;DHT22;10494;50.868;4.180;2023-07-31T03:25:06;17.50;99.90
20670;DHT22;10494;50.868;4.180;2023-07-31T03:27:32;17.50;99.90
20670;DHT22;10494;50.868;4.180;2023-07-31T03:29:57;17.50;99.90
20670;DHT22;10494;50.868;4.180;2023-07-31T03:32:24;17.70;99.90
20670;DHT22;10494;50.868;4.180;2023-07-31T03:34:49;17.60;99.90
20670;DHT22;10494;50.868;4.180;2023-07-31T03:37:15;17.50;99.90
20670;DHT22;10494;50.868;4.180;2023-07-31T03:39:41;17.50;99.90
20670;DHT22;10494;50.868;4.180;2023-07-31T03:42:06;17.30;99.90
20670;DHT22;10494;50.868;4.180;2023-07-31T03:44:32;17.20;99.90
20670;DHT22;10494;50.868;4.180;2023-07-31T03:46:58;17.20;99.90
20670;DHT22;10494;50.868;4.180;2023-07-31T03:49:23;17.10;99.90
20670;DHT22;10494;50.868;4.180;2023-07-31T03:51:49;17.20;99.90
20670;DHT22;10494;50.868;4.180;2023-07-31T03:54:15;17.20;99.90
20670;DHT22;10494;50.868;4.180;2023-07-31T03:56:40;17.30;99.90
20670;DHT22;10494;50.868;4.180;2023-07-31T03:59:06;17.30;99.90
20670;DHT22;10494;50.868;4.180;2023-07-31T04:01:32;17.20;99.90
20670;DHT22;10494;50.868;4.180;2023-07-31T04:03:57;17.10;99.90
20670;DHT22;10494;50.868;4.180;2023-07-31T04:06:23;17.10;99.90
20670;DHT22;10494;50.868;4.180;2023-07-31T04:08:49;17.00;99.90
20670;DHT22;10494;50.868;4.180;2023-07-31T04:11:14;16.90;99.90
20670;DHT22;10494;50.868;4.180;2023-07-31T04:13:41;16.90;99.90
20670;DHT22;10494;50.868;4.180;2023-07-31T04:16:07;16.90;99.90
20670;DHT22;10494;50.868;4.180;2023-07-31T04:18:32;16.90;99.90
20670;DHT22;10494;50.868;4.180;2023-07-31T04:20:58;16.80;99.90
20670;DHT22;10494;50.868;4.180;2023-07-31T04:23:25;16.80;99.90
20670;DHT22;10494;50.868;4.180;2023-07-31T04:25:50;16.80;99.90
20670;DHT22;10494;50.868;4.180;2023-07-31T04:28:16;16.90;99.90
20670;DHT22;10494;50.868;4.180;2023-07-31T04:30:42;16.90;99.90
20670;DHT22;10494;50.868;4.180;2023-07-31T04:33:07;16.90;99.90
20670;DHT22;10494;50.868;4.180;2023-07-31T04:35:33;16.80;99.90
20670;DHT22;10494;50.868;4.180;2023-07-31T04:37:59;16.90;99.90
20670;DHT22;10494;50.868;4.180;2023-07-31T04:40:24;16.90;99.90
20670;DHT22;10494;50.868;4.180;2023-07-31T04:42:50;16.90;99.90
20670;DHT22;10494;50.868;4.180;2023-07-31T04:45:16;17.00;99.90
20670;DHT22;10494;50.868;4.180;2023-07-31T04:47:42;17.00;99.90
20670;DHT22;10494;50.868;4.180;2023-07-31T04:50:07;17.00;99.90
20670;DHT22;10494;50.868;4.180;2023-07-31T04:52:33;17.00;99.90
20670;DHT22;10494;50.868;4.180;2023-07-31T04:54:59;17.00;99.90
20670;DHT22;10494;50.868;4.180;2023-07-31T04:57:24;17.00;99.90
20670;DHT22;10494;50.868;4.180;2023-07-31T04:59:50;17.00;99.90
20670;DHT22;10494;50.868;4.180;2023-07-31T05:02:16;16.80;99.90
20670;DHT22;10494;50.868;4.180;2023-07-31T05:04:41;16.80;99.90
20670;DHT22;10494;50.868;4.180;2023-07-31T05:07:07;16.80;99.90
20670;DHT22;10494;50.868;4.180;2023-07-31T05:09:32;16.70;99.90
20670;DHT22;10494;50.868;4.180;2023-07-31T05:11:58;16.70;99.90
20670;DHT22;10494;50.868;4.180;2023-07-31T05:14:24;16.70;99.90
20670;DHT22;10494;50.868;4.180;2023-07-31T05:16:49;16.70;99.90
20670;DHT22;10494;50.868;4.180;2023-07-31T05:19:15;16.60;99.90
20670;DHT22;10494;50.868;4.180;2023-07-31T05:21:40;16.60;99.90
20670;DHT22;10494;50.868;4.180;2023-07-31T05:24:06;16.60;99.90
20670;DHT22;10494;50.868;4.180;2023-07-31T05:26:32;16.70;99.90
20670;DHT22;10494;50.868;4.180;2023-07-31T05:28:57;16.60;99.90
20670;DHT22;10494;50.868;4.180;2023-07-31T05:31:23;16.60;99.90
20670;DHT22;10494;50.868;4.180;2023-07-31T05:33:50;16.70;99.90
20670;DHT22;10494;50.868;4.180;2023-07-31T05:36:16;16.60;99.90
20670;DHT22;10494;50.868;4.180;2023-07-31T05:38:42;16.60;99.90
20670;DHT22;10494;50.868;4.180;2023-07-31T05:41:10;16.70;99.90
20670;DHT22;10494;50.868;4.180;2023-07-31T05:43:36;16.70;99.90
20670;DHT22;10494;50.868;4.180;2023-07-31T05:46:01;16.70;99.90
20670;DHT22;10494;50.868;4.180;2023-07-31T05:48:27;16.70;99.90
20670;DHT22;10494;50.868;4.180;2023-07-31T05:50:53;16.70;99.90
20670;DHT22;10494;50.868;4.180;2023-07-31T05:53:18;16.60;99.90
20670;DHT22;10494;50.868;4.180;2023-07-31T05:55:44;16.70;99.90
20670;DHT22;10494;50.868;4.180;2023-07-31T05:58:09;16.70;99.90
20670;DHT22;10494;50.868;4.180;2023-07-31T06:00:35;16.70;99.90
20670;DHT22;10494;50.868;4.180;2023-07-31T06:03:01;16.70;99.90
20670;DHT22;10494;50.868;4.180;2023-07-31T06:05:27;16.70;99.90
20670;DHT22;10494;50.868;4.180;2023-07-31T06:07:54;16.70;99.90
20670;DHT22;10494;50.868;4.180;2023-07-31T06:10:20;16.70;99.90
20670;DHT22;10494;50.868;4.180;2023-07-31T06:12:45;16.70;99.90
20670;DHT22;10494;50.868;4.180;2023-07-31T06:15:11;16.80;99.90
20670;DHT22;10494;50.868;4.180;2023-07-31T06:17:36;16.80;99.90
20670;DHT22;10494;50.868;4.180;2023-07-31T06:20:02;16.90;99.90
20670;DHT22;10494;50.868;4.180;2023-07-31T06:22:30;16.90;99.90
20670;DHT22;10494;50.868;4.180;2023-07-31T06:24:56;16.90;99.90
20670;DHT22;10494;50.868;4.180;2023-07-31T06:27:22;17.00;99.90
20670;DHT22;10494;50.868;4.180;2023-07-31T06:29:47;17.10;99.90
20670;DHT22;10494;50.868;4.180;2023-07-31T06:32:13;17.20;99.90
20670;DHT22;10494;50.868;4.180;2023-07-31T06:34:39;17.20;99.90
20670;DHT22;10494;50.868;4.180;2023-07-31T06:37:04;17.20;99.90
20670;DHT22;10494;50.868;4.180;2023-07-31T06:39:30;17.20;99.90
20670;DHT22;10494;50.868;4.180;2023-07-31T06:41:56;17.40;99.90
20670;DHT22;10494;50.868;4.180;2023-07-31T06:44:21;17.40;99.90
20670;DHT22;10494;50.868;4.180;2023-07-31T06:46:47;17.50;99.90
20670;DHT22;10494;50.868;4.180;2023-07-31T06:49:13;17.50;99.90
20670;DHT22;10494;50.868;4.180;2023-07-31T06:51:40;17.50;99.90
20670;DHT22;10494;50.868;4.180;2023-07-31T06:54:07;17.70;99.90
20670;DHT22;10494;50.868;4.180;2023-07-31T06:56:32;17.70;99.90
20670;DHT22;10494;50.868;4.180;2023-07-31T06:58:58;17.70;99.90
20670;DHT22;10494;50.868;4.180;2023-07-31T07:01:24;17.70;99.90
20670;DHT22;10494;50.868;4.180;2023-07-31T07:03:49;17.70;99.90
20670;DHT22;10494;50.868;4.180;2023-07-31T07:06:17;17.80;99.90
20670;DHT22;10494;50.868;4.180;2023-07-31T07:08:43;17.80;99.90
20670;DHT22;10494;50.868;4.180;2023-07-31T07:11:08;17.90;99.90
20670;DHT22;10494;50.868;4.180;2023-07-31T07:13:34;18.00;99.90
20670;DHT22;10494;50.868;4.180;2023-07-31T07:16:00;18.00;99.90
20670;DHT22;10494;50.868;4.180;2023-07-31T07:18:25;17.90;99.90
20670;DHT22;10494;50.868;4.180;2023-07-31T07:20:52;17.90;99.90
20670;DHT22;10494;50.868;4.180;2023-07-31T07:23:18;17.90;99.90
20670;DHT22;10494;50.868;4.180;2023-07-31T07:25:45;18.00;99.90
20670;DHT22;10494;50.868;4.180;2023-07-31T07:28:11;18.00;99.90
20670;DHT22;10494;50.868;4.180;2023-07-31T07:30:37;18.00;99.90
20670;DHT22;10494;50.868;4.180;2023-07-31T07:33:03;18.00;99.90
20670;DHT22;10494;50.868;4.180;2023-07-31T07:35:28;18.10;99.90
20670;DHT22;10494;50.868;4.180;2023-07-31T07:37:54;18.20;99.90
20670;DHT22;10494;50.868;4.180;2023-07-31T07:40:20;18.10;99.90
20670;DHT22;10494;50.868;4.180;2023-07-31T07:42:46;18.10;99.90
20670;DHT22;10494;50.868;4.180;2023-07-31T07:45:12;18.10;99.90
20670;DHT22;10494;50.868;4.180;2023-07-31T07:47:40;18.20;99.90
20670;DHT22;10494;50.868;4.180;2023-07-31T07:50:06;18.30;99.90
20670;DHT22;10494;50.868;4.180;2023-07-31T07:52:32;18.30;99.90
20670;DHT22;10494;50.868;4.180;2023-07-31T07:54:57;18.30;99.90
20670;DHT22;10494;50.868;4.180;2023-07-31T07:57:23;18.30;99.90
20670;DHT22;10494;50.868;4.180;2023-07-31T07:59:48;18.40;99.90
20670;DHT22;10494;50.868;4.180;2023-07-31T08:02:14;18.50;99.90
20670;DHT22;10494;50.868;4.180;2023-07-31T08:04:40;18.70;99.90
20670;DHT22;10494;50.868;4.180;2023-07-31T08:07:05;18.80;99.90
20670;DHT22;10494;50.868;4.180;2023-07-31T08:09:31;18.90;99.90
20670;DHT22;10494;50.868;4.180;2023-07-31T08:11:56;18.90;99.90
20670;DHT22;10494;50.868;4.180;2023-07-31T08:14:27;18.90;99.90
20670;DHT22;10494;50.868;4.180;2023-07-31T08:16:53;18.70;99.90
20670;DHT22;10494;50.868;4.180;2023-07-31T08:19:18;18.50;99.90
20670;DHT22;10494;50.868;4.180;2023-07-31T08:21:44;18.50;99.90
20670;DHT22;10494;50.868;4.180;2023-07-31T08:24:10;18.60;99.90
20670;DHT22;10494;50.868;4.180;2023-07-31T08:26:35;18.50;99.90
20670;DHT22;10494;50.868;4.180;2023-07-31T08:29:01;18.60;99.90
20670;DHT22;10494;50.868;4.180;2023-07-31T08:31:26;18.60;99.90
20670;DHT22;10494;50.868;4.180;2023-07-31T08:33:55;18.80;99.90
20670;DHT22;10494;50.868;4.180;2023-07-31T08:36:21;18.70;99.90
20670;DHT22;10494;50.868;4.180;2023-07-31T08:38:47;18.70;99.90
20670;DHT22;10494;50.868;4.180;2023-07-31T08:41:12;18.70;99.90
20670;DHT22;10494;50.868;4.180;2023-07-31T08:43:39;18.60;99.90
20670;DHT22;10494;50.868;4.180;2023-07-31T08:46:05;18.60;99.90
20670;DHT22;10494;50.868;4.180;2023-07-31T08:48:32;18.50;99.90
20670;DHT22;10494;50.868;4.180;2023-07-31T08:50:58;18.50;99.90
20670;DHT22;10494;50.868;4.180;2023-07-31T08:53:24;18.60;99.90
20670;DHT22;10494;50.868;4.180;2023-07-31T08:55:52;18.60;99.90
20670;DHT22;10494;50.868;4.180;2023-07-31T08:58:19;18.50;99.90
20670;DHT22;10494;50.868;4.180;2023-07-31T09:00:46;18.60;99.90
20670;DHT22;10494;50.868;4.180;2023-07-31T09:03:17;18.80;99.90
20670;DHT22;10494;50.868;4.180;2023-07-31T09:05:44;18.70;99.90
20670;DHT22;10494;50.868;4.180;2023-07-31T09:08:12;18.60;99.90
20670;DHT22;10494;50.868;4.180;2023-07-31T09:10:44;18.60;99.90
20670;DHT22;10494;50.868;4.180;2023-07-31T09:13:13;18.80;99.90
20670;DHT22;10494;50.868;4.180;2023-07-31T09:15:40;18.90;99.90
20670;DHT22;10494;50.868;4.180;2023-07-31T09:18:07;19.10;99.90
20670;DHT22;10494;50.868;4.180;2023-07-31T09:20:33;19.30;99.90
20670;DHT22;10494;50.868;4.180;2023-07-31T09:23:25;19.60;99.90
20670;DHT22;10494;50.868;4.180;2023-07-31T09:25:51;19.60;99.90
20670;DHT22;10494;50.868;4.180;2023-07-31T09:28:16;19.40;99.90
20670;DHT22;10494;50.868;4.180;2023-07-31T09:30:51;19.20;99.90
20670;DHT22;10494;50.868;4.180;2023-07-31T09:33:20;19.20;99.90
20670;DHT22;10494;50.868;4.180;2023-07-31T09:35:47;19.00;99.90
20670;DHT22;10494;50.868;4.180;2023-07-31T09:38:14;18.90;99.90
20670;DHT22;10494;50.868;4.180;2023-07-31T09:40:46;19.00;99.90
20670;DHT22;10494;50.868;4.180;2023-07-31T09:43:14;18.90;99.90
20670;DHT22;10494;50.868;4.180;2023-07-31T09:45:43;18.80;99.90
20670;DHT22;10494;50.868;4.180;2023-07-31T09:48:16;18.60;99.90
20670;DHT22;10494;50.868;4.180;2023-07-31T09:50:46;18.40;99.90
20670;DHT22;10494;50.868;4.180;2023-07-31T09:53:12;18.30;99.90
20670;DHT22;10494;50.868;4.180;2023-07-31T09:55:39;18.20;99.90
20670;DHT22;10494;50.868;4.180;2023-07-31T09:58:07;18.10;99.90
20670;DHT22;10494;50.868;4.180;2023-07-31T10:00:33;18.10;99.90
20670;DHT22;10494;50.868;4.180;2023-07-31T10:03:02;18.20;99.90
20670;DHT22;10494;50.868;4.180;2023-07-31T10:05:50;18.30;99.90
20670;DHT22;10494;50.868;4.180;2023-07-31T10:08:18;18.40;99.90
20670;DHT22;10494;50.868;4.180;2023-07-31T10:10:46;18.50;99.90
20670;DHT22;10494;50.868;4.180;2023-07-31T10:13:12;18.50;99.90
20670;DHT22;10494;50.868;4.180;2023-07-31T10:15:38;18.60;99.90
20670;DHT22;10494;50.868;4.180;2023-07-31T10:18:07;18.60;99.90
20670;DHT22;10494;50.868;4.180;2023-07-31T10:20:34;18.70;99.90
20670;DHT22;10494;50.868;4.180;2023-07-31T10:23:00;18.80;99.90
20670;DHT22;10494;50.868;4.180;2023-07-31T10:25:27;18.80;99.90
20670;DHT22;10494;50.868;4.180;2023-07-31T10:27:53;19.00;99.90
20670;DHT22;10494;50.868;4.180;2023-07-31T10:30:23;19.10;99.90
20670;DHT22;10494;50.868;4.180;2023-07-31T10:32:50;19.10;99.90
20670;DHT22;10494;50.868;4.180;2023-07-31T10:35:17;19.00;99.90
20670;DHT22;10494;50.868;4.180;2023-07-31T10:37:43;19.10;99.90
20670;DHT22;10494;50.868;4.180;2023-07-31T10:40:17;19.20;99.90
20670;DHT22;10494;50.868;4.180;2023-07-31T10:42:52;19.40;99.90
20670;DHT22;10494;50.868;4.180;2023-07-31T10:45:33;19.50;99.90
20670;DHT22;10494;50.868;4.180;2023-07-31T10:48:28;19.60;99.90
20670;DHT22;10494;50.868;4.180;2023-07-31T10:50:59;19.70;99.90
20670;DHT22;10494;50.868;4.180;2023-07-31T10:53:34;19.90;99.90
20670;DHT22;10494;50.868;4.180;2023-07-31T10:56:01;19.90;99.90
20670;DHT22;10494;50.868;4.180;2023-07-31T10:58:27;19.90;99.90
20670;DHT22;10494;50.868;4.180;2023-07-31T11:00:56;20.00;99.90
20670;DHT22;10494;50.868;4.180;2023-07-31T11:03:47;20.10;99.90
20670;DHT22;10494;50.868;4.180;2023-07-31T11:06:12;20.30;99.90
20670;DHT22;10494;50.868;4.180;2023-07-31T11:08:49;20.50;99.90
20670;DHT22;10494;50.868;4.180;2023-07-31T11:11:16;20.40;99.90
20670;DHT22;10494;50.868;4.180;2023-07-31T11:13:50;20.50;99.90
20670;DHT22;10494;50.868;4.180;2023-07-31T11:16:19;20.50;99.90
20670;DHT22;10494;50.868;4.180;2023-07-31T11:18:46;20.50;99.90
20670;DHT22;10494;50.868;4.180;2023-07-31T11:21:21;20.40;99.90
20670;DHT22;10494;50.868;4.180;2023-07-31T11:23:49;20.20;99.90
20670;DHT22;10494;50.868;4.180;2023-07-31T11:26:15;19.90;99.90
20670;DHT22;10494;50.868;4.180;2023-07-31T11:28:41;19.80;99.90
20670;DHT22;10494;50.868;4.180;2023-07-31T11:31:10;19.70;99.90
20670;DHT22;10494;50.868;4.180;2023-07-31T11:33:36;19.60;99.90
20670;DHT22;10494;50.868;4.180;2023-07-31T11:36:02;19.60;99.90
20670;DHT22;10494;50.868;4.180;2023-07-31T11:38:29;19.60;99.90
20670;DHT22;10494;50.868;4.180;2023-07-31T11:40:58;19.70;99.90
20670;DHT22;10494;50.868;4.180;2023-07-31T11:43:24;19.50;99.90
20670;DHT22;10494;50.868;4.180;2023-07-31T11:45:57;19.40;99.90
20670;DHT22;10494;50.868;4.180;2023-07-31T11:48:27;19.40;99.90
20670;DHT22;10494;50.868;4.180;2023-07-31T11:50:54;19.40;99.90
20670;DHT22;10494;50.868;4.180;2023-07-31T11:53:28;19.40;99.90
20670;DHT22;10494;50.868;4.180;2023-07-31T11:55:55;19.40;99.90
20670;DHT22;10494;50.868;4.180;2023-07-31T11:58:23;19.60;99.90
20670;DHT22;10494;50.868;4.180;2023-07-31T12:00:49;19.70;99.90
20670;DHT22;10494;50.868;4.180;2023-07-31T12:03:15;19.70;99.90
20670;DHT22;10494;50.868;4.180;2023-07-31T12:05:40;19.80;99.90
20670;DHT22;10494;50.868;4.180;2023-07-31T12:08:10;19.90;99.90
20670;DHT22;10494;50.868;4.180;2023-07-31T12:10:37;20.10;99.90
20670;DHT22;10494;50.868;4.180;2023-07-31T12:13:05;20.20;99.90
20670;DHT22;10494;50.868;4.180;2023-07-31T12:15:58;20.20;99.90
20670;DHT22;10494;50.868;4.180;2023-07-31T12:18:26;20.20;99.90
20670;DHT22;10494;50.868;4.180;2023-07-31T12:20:57;20.10;99.90
20670;DHT22;10494;50.868;4.180;2023-07-31T12:23:27;20.10;99.90
20670;DHT22;10494;50.868;4.180;2023-07-31T12:28:49;20.20;99.90
20670;DHT22;10494;50.868;4.180;2023-07-31T12:31:17;20.20;99.90
20670;DHT22;10494;50.868;4.180;2023-07-31T12:33:44;20.30;99.90
20670;DHT22;10494;50.868;4.180;2023-07-31T12:36:14;20.40;99.90
20670;DHT22;10494;50.868;4.180;2023-07-31T12:38:41;20.60;99.90
20670;DHT22;10494;50.868;4.180;2023-07-31T12:41:07;20.60;99.90
20670;DHT22;10494;50.868;4.180;2023-07-31T12:43:34;20.70;99.90
20670;DHT22;10494;50.868;4.180;2023-07-31T12:46:00;20.80;99.90
20670;DHT22;10494;50.868;4.180;2023-07-31T12:48:25;20.80;99.90
20670;DHT22;10494;50.868;4.180;2023-07-31T12:50:51;20.70;99.90
20670;DHT22;10494;50.868;4.180;2023-07-31T12:53:17;20.50;99.90
20670;DHT22;10494;50.868;4.180;2023-07-31T12:55:42;20.40;99.90
20670;DHT22;10494;50.868;4.180;2023-07-31T12:58:08;20.20;99.90
20670;DHT22;10494;50.868;4.180;2023-07-31T13:00:34;19.90;99.90
20670;DHT22;10494;50.868;4.180;2023-07-31T13:03:00;19.70;99.90
20670;DHT22;10494;50.868;4.180;2023-07-31T13:05:29;19.50;99.90
20670;DHT22;10494;50.868;4.180;2023-07-31T13:07:55;19.40;99.90
20670;DHT22;10494;50.868;4.180;2023-07-31T13:10:22;19.30;99.90
20670;DHT22;10494;50.868;4.180;2023-07-31T13:12:49;19.20;99.90
20670;DHT22;10494;50.868;4.180;2023-07-31T13:15:15;19.10;99.90
20670;DHT22;10494;50.868;4.180;2023-07-31T13:17:40;18.90;99.90
20670;DHT22;10494;50.868;4.180;2023-07-31T13:20:07;18.90;99.90
20670;DHT22;10494;50.868;4.180;2023-07-31T13:22:33;18.70;99.90
20670;DHT22;10494;50.868;4.180;2023-07-31T13:24:58;18.70;99.90
20670;DHT22;10494;50.868;4.180;2023-07-31T13:27:24;18.60;99.90
20670;DHT22;10494;50.868;4.180;2023-07-31T13:29:50;18.50;99.90
20670;DHT22;10494;50.868;4.180;2023-07-31T13:32:17;18.40;99.90
20670;DHT22;10494;50.868;4.180;2023-07-31T13:34:43;18.30;99.90
20670;DHT22;10494;50.868;4.180;2023-07-31T13:37:09;18.30;99.90
20670;DHT22;10494;50.868;4.180;2023-07-31T13:39:34;18.30;99.90
20670;DHT22;10494;50.868;4.180;2023-07-31T13:42:02;18.20;99.90
20670;DHT22;10494;50.868;4.180;2023-07-31T13:44:28;18.20;99.90
20670;DHT22;10494;50.868;4.180;2023-07-31T13:46:53;18.20;99.90
20670;DHT22;10494;50.868;4.180;2023-07-31T13:49:19;18.20;99.90
20670;DHT22;10494;50.868;4.180;2023-07-31T13:51:45;18.20;99.90
20670;DHT22;10494;50.868;4.180;2023-07-31T13:54:11;18.10;99.90
20670;DHT22;10494;50.868;4.180;2023-07-31T13:56:37;18.20;99.90
20670;DHT22;10494;50.868;4.180;2023-07-31T13:59:03;18.20;99.90
20670;DHT22;10494;50.868;4.180;2023-07-31T14:01:29;18.30;99.90
20670;DHT22;10494;50.868;4.180;2023-07-31T14:03:55;18.30;99.90
20670;DHT22;10494;50.868;4.180;2023-07-31T14:06:21;18.30;99.90
20670;DHT22;10494;50.868;4.180;2023-07-31T14:08:46;18.20;99.90
20670;DHT22;10494;50.868;4.180;2023-07-31T14:11:12;18.30;99.90
20670;DHT22;10494;50.868;4.180;2023-07-31T14:13:38;18.30;99.90
20670;DHT22;10494;50.868;4.180;2023-07-31T14:16:03;18.20;99.90
20670;DHT22;10494;50.868;4.180;2023-07-31T14:18:29;18.30;99.90
20670;DHT22;10494;50.868;4.180;2023-07-31T14:20:55;18.30;99.90
20670;DHT22;10494;50.868;4.180;2023-07-31T14:23:20;18.30;99.90
20670;DHT22;10494;50.868;4.180;2023-07-31T14:25:47;18.30;99.90
20670;DHT22;10494;50.868;4.180;2023-07-31T14:28:12;18.40;99.90
20670;DHT22;10494;50.868;4.180;2023-07-31T14:30:38;18.40;99.90
20670;DHT22;10494;50.868;4.180;2023-07-31T14:33:03;18.30;99.90
20670;DHT22;10494;50.868;4.180;2023-07-31T14:35:29;18.30;99.90
20670;DHT22;10494;50.868;4.180;2023-07-31T14:37:55;18.30;99.90
20670;DHT22;10494;50.868;4.180;2023-07-31T14:40:20;18.30;99.90
20670;DHT22;10494;50.868;4.180;2023-07-31T14:42:46;18.30;99.90
20670;DHT22;10494;50.868;4.180;2023-07-31T14:45:12;18.30;99.90
20670;DHT22;10494;50.868;4.180;2023-07-31T14:47:37;18.30;99.90
20670;DHT22;10494;50.868;4.180;2023-07-31T14:50:03;18.30;99.90
20670;DHT22;10494;50.868;4.180;2023-07-31T14:52:29;18.20;99.90
20670;DHT22;10494;50.868;4.180;2023-07-31T14:54:55;18.20;99.90
20670;DHT22;10494;50.868;4.180;2023-07-31T14:57:20;18.20;99.90
20670;DHT22;10494;50.868;4.180;2023-07-31T14:59:47;18.20;99.90
20670;DHT22;10494;50.868;4.180;2023-07-31T15:02:12;18.20;99.90
20670;DHT22;10494;50.868;4.180;2023-07-31T15:04:38;18.20;99.90
20670;DHT22;10494;50.868;4.180;2023-07-31T15:07:04;18.10;99.90
20670;DHT22;10494;50.868;4.180;2023-07-31T15:09:30;18.20;99.90
20670;DHT22;10494;50.868;4.180;2023-07-31T15:11:56;18.20;99.90
20670;DHT22;10494;50.868;4.180;2023-07-31T15:14:22;18.20;99.90
20670;DHT22;10494;50.868;4.180;2023-07-31T15:16:47;18.20;99.90
20670;DHT22;10494;50.868;4.180;2023-07-31T15:19:14;18.20;99.90
20670;DHT22;10494;50.868;4.180;2023-07-31T15:21:40;18.20;99.90
20670;DHT22;10494;50.868;4.180;2023-07-31T15:24:05;18.10;99.90
20670;DHT22;10494;50.868;4.180;2023-07-31T15:26:31;18.20;99.90
20670;DHT22;10494;50.868;4.180;2023-07-31T15:29:06;18.30;99.90
20670;DHT22;10494;50.868;4.180;2023-07-31T15:31:41;18.30;99.90
20670;DHT22;10494;50.868;4.180;2023-07-31T15:34:15;18.30;99.90